Time;durP1;ratioP1;P1;durP2;ratioP2;P2;SDS_P1;SDS_P2;PMS_P1;PMS_P2;Temp;Humidity;BMP_temperature;BMP_pressure;BME280_temperature;BME280_humidity;BME280_pressure;Samples;Min_cycle;Max_cycle;Signal;HPM_P1;HPM_P2
2021/09/16 00:01:05;;;;;;;4.57;1.30;;;27.80;99.90;;;;;;4178912;28;20044;-66
2021/09/16 00:03:10;;;;;;;3.83;1.75;;;27.80;99.90;;;;;;4191274;28;20469;-66
2021/09/16 00:05:14;;;;;;;3.90;1.70;;;27.80;99.90;;;;;;4191629;28;20505;-64
2021/09/16 00:07:18;;;;;;;6.78;1.88;;;27.90;99.90;;;;;;4190685;28;20060;-66
2021/09/16 00:09:23;;;;;;;4.70;1.65;;;27.90;99.90;;;;;;4192778;28;20048;-66
2021/09/16 00:11:27;;;;;;;3.95;1.65;;;27.90;99.90;;;;;;4187671;28;20045;-65
2021/09/16 00:13:32;;;;;;;5.40;1.70;;;27.90;99.90;;;;;;4193838;28;20124;-65
2021/09/16 00:15:37;;;;;;;6.18;1.75;;;28.00;99.90;;;;;;4195065;28;20036;-65
2021/09/16 00:17:41;;;;;;;5.68;1.50;;;27.90;99.90;;;;;;4194909;28;20059;-66
2021/09/16 00:19:46;;;;;;;3.85;1.23;;;28.00;99.90;;;;;;4186413;28;20098;-67
2021/09/16 00:21:50;;;;;;;3.35;1.40;;;27.90;99.90;;;;;;4188839;28;20403;-66
2021/09/16 00:23:55;;;;;;;4.13;1.45;;;27.90;99.90;;;;;;4193197;28;20090;-67
2021/09/16 00:25:59;;;;;;;4.47;1.40;;;27.90;99.90;;;;;;4192250;28;20048;-66
2021/09/16 00:28:03;;;;;;;2.10;1.38;;;28.00;99.90;;;;;;4193056;28;20056;-65
2021/09/16 00:30:09;;;;;;;2.72;1.60;;;28.10;99.90;;;;;;4168451;28;20080;-66
2021/09/16 00:32:14;;;;;;;2.00;1.33;;;28.10;99.90;;;;;;4189116;28;20502;-65
2021/09/16 00:34:20;;;;;;;2.15;1.63;;;28.10;99.90;;;;;;4187481;28;20072;-67
2021/09/16 00:36:25;;;;;;;2.22;1.38;;;28.20;99.90;;;;;;4193729;28;20514;-67
2021/09/16 00:38:29;;;;;;;4.10;1.58;;;28.20;99.90;;;;;;4194959;28;20041;-66
2021/09/16 00:40:34;;;;;;;3.65;1.20;;;28.30;99.90;;;;;;4187242;28;20049;-66
2021/09/16 00:42:38;;;;;;;4.18;1.40;;;28.30;99.90;;;;;;4191076;28;20134;-66
2021/09/16 00:44:43;;;;;;;2.30;1.40;;;28.30;99.90;;;;;;4190682;28;20518;-66
2021/09/16 00:46:48;;;;;;;2.85;1.27;;;28.30;99.90;;;;;;4194532;28;20044;-66
2021/09/16 00:48:53;;;;;;;3.63;1.55;;;28.40;99.90;;;;;;4193095;28;20075;-66
2021/09/16 00:50:58;;;;;;;3.45;1.20;;;28.40;99.90;;;;;;4182623;28;20062;-65
2021/09/16 00:53:02;;;;;;;3.60;1.52;;;28.40;99.90;;;;;;4192661;28;20041;-66
2021/09/16 00:55:08;;;;;;;2.80;1.40;;;28.50;99.90;;;;;;4194399;28;20147;-66
2021/09/16 00:57:13;;;;;;;3.28;1.80;;;28.50;99.90;;;;;;4192797;28;20502;-66
2021/09/16 00:59:19;;;;;;;2.95;1.40;;;28.50;99.90;;;;;;4188274;28;20047;-65
2021/09/16 01:01:23;;;;;;;3.63;1.73;;;28.60;99.90;;;;;;4167321;28;20534;-66
2021/09/16 01:03:27;;;;;;;3.85;1.80;;;28.70;99.90;;;;;;4191476;28;20506;-65
2021/09/16 01:05:32;;;;;;;2.70;1.70;;;28.70;99.90;;;;;;4193266;28;20051;-66
2021/09/16 01:07:39;;;;;;;5.43;1.80;;;28.70;99.90;;;;;;4191247;28;20044;-66
2021/09/16 01:09:44;;;;;;;2.75;1.80;;;28.80;99.90;;;;;;4186307;28;20135;-66
2021/09/16 01:11:48;;;;;;;4.60;1.80;;;28.80;99.90;;;;;;4184415;28;20053;-66
2021/09/16 01:13:54;;;;;;;4.25;2.28;;;28.90;99.90;;;;;;4191649;28;20045;-66
2021/09/16 01:15:59;;;;;;;2.70;1.90;;;28.90;99.90;;;;;;4190157;28;20068;-66
2021/09/16 01:18:04;;;;;;;2.28;1.73;;;29.00;99.90;;;;;;4193596;28;20562;-65
2021/09/16 01:20:11;;;;;;;3.78;2.08;;;29.00;99.90;;;;;;4185484;28;20040;-64
2021/09/16 01:22:19;;;;;;;2.38;1.60;;;28.90;99.90;;;;;;4186945;28;20036;-65
2021/09/16 01:24:24;;;;;;;3.22;1.80;;;28.90;99.90;;;;;;4174376;28;20049;-65
2021/09/16 01:26:30;;;;;;;3.75;1.88;;;28.80;99.90;;;;;;4207674;28;20517;-65
2021/09/16 01:28:34;;;;;;;3.13;1.67;;;28.80;99.90;;;;;;4193482;28;20727;-66
2021/09/16 01:30:39;;;;;;;2.53;1.45;;;28.80;99.90;;;;;;4185057;28;20513;-65
2021/09/16 01:32:44;;;;;;;4.00;1.77;;;28.90;99.90;;;;;;4191097;28;20044;-66
2021/09/16 01:34:50;;;;;;;2.95;1.63;;;28.90;99.90;;;;;;4189855;28;20044;-66
2021/09/16 01:36:54;;;;;;;3.80;1.92;;;28.90;99.90;;;;;;4192374;28;20049;-66
2021/09/16 01:38:59;;;;;;;3.38;1.67;;;28.90;99.90;;;;;;4192424;28;20051;-66
2021/09/16 01:41:04;;;;;;;3.70;1.42;;;29.00;99.90;;;;;;4164640;28;20036;-66
2021/09/16 01:43:08;;;;;;;4.22;1.80;;;29.00;99.90;;;;;;4189278;28;20044;-66
2021/09/16 01:45:17;;;;;;;2.80;1.83;;;29.10;99.90;;;;;;4190958;28;20119;-66
2021/09/16 01:47:21;;;;;;;4.15;1.58;;;29.20;99.90;;;;;;4191836;28;20429;-66
2021/09/16 01:49:26;;;;;;;2.03;1.52;;;29.30;99.90;;;;;;4188693;28;20098;-66
2021/09/16 01:51:32;;;;;;;3.25;1.60;;;29.30;99.90;;;;;;4183261;28;20052;-69
2021/09/16 01:53:37;;;;;;;2.47;1.67;;;29.40;99.90;;;;;;4191586;28;20079;-67
2021/09/16 01:55:42;;;;;;;4.32;1.85;;;29.40;99.90;;;;;;4192453;28;20059;-66
2021/09/16 01:57:47;;;;;;;3.10;1.63;;;29.50;99.90;;;;;;4191940;28;20078;-68
2021/09/16 01:59:52;;;;;;;3.80;2.08;;;29.50;99.90;;;;;;4169669;28;20397;-66
2021/09/16 02:01:56;;;;;;;5.65;2.30;;;29.50;99.90;;;;;;4188903;28;21004;-65
2021/09/16 02:04:01;;;;;;;2.42;2.13;;;29.60;99.90;;;;;;4188748;28;20049;-66
2021/09/16 02:06:05;;;;;;;3.03;2.08;;;29.60;99.90;;;;;;4191620;28;20060;-67
2021/09/16 02:08:11;;;;;;;3.50;2.08;;;29.60;99.90;;;;;;4191748;28;20044;-65
2021/09/16 02:10:15;;;;;;;3.13;2.00;;;29.60;99.90;;;;;;4184138;28;20082;-65
2021/09/16 02:12:20;;;;;;;2.67;1.50;;;29.70;99.90;;;;;;4185440;28;20036;-66
2021/09/16 02:14:25;;;;;;;3.13;1.98;;;29.70;99.90;;;;;;4191869;28;20037;-66
2021/09/16 02:16:29;;;;;;;2.92;1.70;;;29.70;99.90;;;;;;4189982;28;20127;-67
2021/09/16 02:18:34;;;;;;;2.00;1.45;;;29.80;99.90;;;;;;4181402;28;20033;-66
2021/09/16 02:20:38;;;;;;;3.38;1.80;;;29.80;99.90;;;;;;4180891;28;20037;-66
2021/09/16 02:22:43;;;;;;;4.55;1.70;;;29.80;99.90;;;;;;4189382;28;20123;-67
2021/09/16 02:24:47;;;;;;;2.50;1.65;;;29.90;99.90;;;;;;4191512;28;20543;-66
2021/09/16 02:26:57;;;;;;;1.77;1.42;;;29.90;99.90;;;;;;4190490;28;20048;-67
2021/09/16 02:29:02;;;;;;;3.10;1.52;;;29.90;99.90;;;;;;4188788;28;20399;-66
2021/09/16 02:31:07;;;;;;;3.72;2.00;;;30.00;99.90;;;;;;4178774;28;20080;-67
2021/09/16 02:33:12;;;;;;;3.70;1.75;;;30.00;99.90;;;;;;4188309;28;20493;-67
2021/09/16 02:35:16;;;;;;;3.28;1.65;;;29.90;99.90;;;;;;4173918;28;20048;-67
2021/09/16 02:37:22;;;;;;;9.02;1.58;;;30.00;99.90;;;;;;4184061;28;20090;-67
2021/09/16 02:39:27;;;;;;;3.35;1.80;;;29.90;99.90;;;;;;4185537;28;20056;-66
2021/09/16 02:41:32;;;;;;;4.82;1.92;;;30.00;99.90;;;;;;4183089;28;20537;-68
2021/09/16 02:43:36;;;;;;;4.40;1.75;;;30.00;99.90;;;;;;4189664;28;20470;-66
2021/09/16 02:45:41;;;;;;;5.18;1.80;;;30.00;99.90;;;;;;4189395;28;20044;-66
2021/09/16 02:47:46;;;;;;;4.75;1.95;;;30.10;99.90;;;;;;4189401;28;20474;-66
2021/09/16 02:49:50;;;;;;;3.33;2.03;;;30.10;99.90;;;;;;4169368;28;20036;-66
2021/09/16 02:51:54;;;;;;;4.05;1.80;;;30.00;99.90;;;;;;4183760;28;20139;-67
2021/09/16 02:53:59;;;;;;;2.95;1.55;;;30.10;99.90;;;;;;4186074;28;20048;-66
2021/09/16 02:56:03;;;;;;;2.28;1.65;;;30.00;99.90;;;;;;4190210;28;20505;-66
2021/09/16 02:58:08;;;;;;;4.50;1.70;;;30.00;99.90;;;;;;4190082;28;20045;-66
2021/09/16 03:00:13;;;;;;;2.33;1.60;;;30.00;99.90;;;;;;4184483;28;20048;-66
2021/09/16 03:02:17;;;;;;;1.75;1.45;;;30.00;99.90;;;;;;4178992;28;20603;-67
2021/09/16 03:04:22;;;;;;;2.75;1.60;;;30.10;99.90;;;;;;4191233;28;20495;-65
2021/09/16 03:06:26;;;;;;;2.22;1.45;;;30.10;99.90;;;;;;4192018;28;20048;-65
2021/09/16 03:08:30;;;;;;;2.55;1.60;;;30.10;99.90;;;;;;4190163;28;20055;-65
2021/09/16 03:10:35;;;;;;;2.70;1.77;;;30.20;99.90;;;;;;4184041;28;20121;-66
2021/09/16 03:12:40;;;;;;;2.13;1.63;;;30.10;99.90;;;;;;4187732;28;20123;-66
2021/09/16 03:14:45;;;;;;;4.45;1.77;;;30.20;99.90;;;;;;4190005;28;20422;-66
2021/09/16 03:16:49;;;;;;;4.45;1.65;;;30.30;99.90;;;;;;4189649;28;20102;-66
2021/09/16 03:18:54;;;;;;;3.05;1.77;;;30.30;99.90;;;;;;4190819;28;20502;-67
2021/09/16 03:20:58;;;;;;;5.38;2.05;;;30.30;99.90;;;;;;4176380;28;20066;-67
2021/09/16 03:23:03;;;;;;;5.18;2.10;;;30.40;99.90;;;;;;4191040;28;20460;-67
2021/09/16 03:25:08;;;;;;;2.03;1.75;;;30.40;99.90;;;;;;4189076;28;20511;-67
2021/09/16 03:27:13;;;;;;;4.40;2.00;;;30.30;99.90;;;;;;4188525;28;20434;-66
2021/09/16 03:29:19;;;;;;;5.13;2.40;;;30.30;99.90;;;;;;4172380;28;20057;-68
2021/09/16 03:31:24;;;;;;;3.38;2.15;;;30.30;99.90;;;;;;4178953;28;20048;-67
2021/09/16 03:33:29;;;;;;;4.72;1.85;;;30.30;99.90;;;;;;4186393;28;20287;-67
2021/09/16 03:35:33;;;;;;;2.67;1.60;;;30.30;99.90;;;;;;4188868;28;20076;-67
2021/09/16 03:37:38;;;;;;;3.28;1.70;;;30.30;99.90;;;;;;4188155;28;20037;-66
2021/09/16 03:39:42;;;;;;;2.28;1.63;;;30.30;99.90;;;;;;4184544;28;20135;-67
2021/09/16 03:41:47;;;;;;;2.38;1.73;;;30.20;99.90;;;;;;4184047;28;20044;-67
2021/09/16 03:43:52;;;;;;;2.40;1.58;;;30.30;99.90;;;;;;4190051;28;20492;-67
2021/09/16 03:45:57;;;;;;;3.28;1.90;;;30.30;99.90;;;;;;4193626;28;20040;-67
2021/09/16 03:48:01;;;;;;;4.63;2.10;;;30.40;99.90;;;;;;4193691;28;20499;-67
2021/09/16 03:50:07;;;;;;;3.55;2.15;;;30.40;99.90;;;;;;4168644;28;20474;-67
2021/09/16 03:52:11;;;;;;;7.43;2.70;;;30.30;99.90;;;;;;4188058;28;20044;-67
2021/09/16 03:54:16;;;;;;;4.28;2.33;;;30.40;99.90;;;;;;4192380;28;20095;-67
2021/09/16 03:56:20;;;;;;;4.38;2.10;;;30.40;99.90;;;;;;4191970;28;20048;-68
2021/09/16 03:58:26;;;;;;;3.50;2.00;;;30.40;99.90;;;;;;4192664;28;20765;-67
2021/09/16 04:00:30;;;;;;;2.95;1.60;;;30.40;99.90;;;;;;4185759;28;20053;-68
2021/09/16 04:02:36;;;;;;;4.85;1.50;;;30.50;99.90;;;;;;4190092;28;20049;-68
2021/09/16 04:04:40;;;;;;;3.70;1.42;;;30.50;99.90;;;;;;4192929;28;20052;-67
2021/09/16 04:06:45;;;;;;;4.40;1.70;;;30.60;99.90;;;;;;4194181;28;20125;-67
2021/09/16 04:08:50;;;;;;;3.40;1.80;;;30.60;99.90;;;;;;4192161;28;20064;-68
2021/09/16 04:10:54;;;;;;;3.22;1.50;;;30.60;99.90;;;;;;4181085;28;20597;-68
2021/09/16 04:12:59;;;;;;;3.88;1.50;;;30.70;99.90;;;;;;4192101;28;20048;-68
2021/09/16 04:15:04;;;;;;;2.40;1.48;;;30.80;99.90;;;;;;4191427;28;20044;-67
2021/09/16 04:17:09;;;;;;;2.75;1.58;;;31.00;99.90;;;;;;4192593;28;20159;-67
2021/09/16 04:19:13;;;;;;;2.47;1.50;;;31.10;99.90;;;;;;4193070;28;20044;-68
2021/09/16 04:21:18;;;;;;;1.95;1.40;;;31.20;99.90;;;;;;4184574;28;20036;-66
2021/09/16 04:23:22;;;;;;;1.50;1.27;;;31.30;99.90;;;;;;4186822;28;20547;-68
2021/09/16 04:25:26;;;;;;;1.92;1.15;;;31.40;99.90;;;;;;4192428;28;20083;-68
2021/09/16 04:27:31;;;;;;;1.35;1.00;;;31.40;99.90;;;;;;4192222;28;20088;-67
2021/09/16 04:29:36;;;;;;;2.58;1.00;;;31.50;99.90;;;;;;4187791;28;20602;-67
2021/09/16 04:31:41;;;;;;;0.98;0.80;;;31.60;99.90;;;;;;4185171;28;20185;-67
2021/09/16 04:33:45;;;;;;;1.70;1.20;;;31.70;99.90;;;;;;4175420;28;20159;-67
2021/09/16 04:35:49;;;;;;;1.77;1.02;;;31.70;99.90;;;;;;4161109;28;20053;-68
2021/09/16 04:37:54;;;;;;;3.30;1.30;;;31.70;99.90;;;;;;4161044;28;20084;-68
2021/09/16 04:39:58;;;;;;;1.15;0.93;;;31.70;99.90;;;;;;4154926;28;21316;-68
2021/09/16 04:42:05;;;;;;;1.50;1.00;;;31.70;99.90;;;;;;4152420;28;20529;-68
2021/09/16 04:44:10;;;;;;;2.17;1.08;;;31.80;99.90;;;;;;4152777;28;20041;-70
2021/09/16 04:46:14;;;;;;;5.05;1.13;;;31.90;99.90;;;;;;4160566;28;20049;-68
2021/09/16 04:48:18;;;;;;;1.35;0.98;;;31.90;99.90;;;;;;4127566;28;20176;-66
2021/09/16 04:50:22;;;;;;;1.73;0.93;;;32.00;99.90;;;;;;4133568;28;20089;-67
2021/09/16 04:52:27;;;;;;;4.25;1.15;;;32.00;99.90;;;;;;4156427;28;20584;-67
2021/09/16 04:54:32;;;;;;;1.60;1.00;;;32.10;99.90;;;;;;4157785;28;20092;-67
2021/09/16 04:56:36;;;;;;;2.55;1.10;;;32.20;99.90;;;;;;4158394;28;20045;-67
2021/09/16 04:58:40;;;;;;;2.13;1.00;;;32.30;99.90;;;;;;4157889;28;20132;-68
2021/09/16 05:00:45;;;;;;;2.28;0.93;;;32.30;99.90;;;;;;4150537;28;20542;-68
2021/09/16 05:02:50;;;;;;;3.40;1.23;;;32.30;99.90;;;;;;4157814;28;20573;-68
2021/09/16 05:04:54;;;;;;;1.30;0.90;;;32.30;99.90;;;;;;4158349;28;20514;-68
2021/09/16 05:06:58;;;;;;;1.83;0.80;;;32.30;99.90;;;;;;4159447;28;20060;-67
2021/09/16 05:09:03;;;;;;;1.27;0.90;;;32.20;99.90;;;;;;4158148;28;20053;-67
2021/09/16 05:11:08;;;;;;;1.60;1.00;;;32.30;99.90;;;;;;4150233;28;20056;-67
2021/09/16 05:13:12;;;;;;;1.08;0.70;;;32.40;99.90;;;;;;4158697;28;20053;-67
2021/09/16 05:15:17;;;;;;;1.67;0.93;;;32.30;99.90;;;;;;4157231;28;20045;-67
2021/09/16 05:17:21;;;;;;;1.52;0.90;;;32.30;99.90;;;;;;4156339;28;20042;-67
2021/09/16 05:19:26;;;;;;;2.78;1.33;;;32.30;99.90;;;;;;4156204;28;20045;-67
2021/09/16 05:21:30;;;;;;;1.63;0.90;;;32.30;99.90;;;;;;4153047;28;20041;-68
2021/09/16 05:23:35;;;;;;;2.13;0.80;;;32.40;99.90;;;;;;4157665;28;20053;-67
2021/09/16 05:25:39;;;;;;;3.70;0.77;;;32.30;99.90;;;;;;4159741;28;20110;-67
2021/09/16 05:27:44;;;;;;;2.30;0.80;;;32.30;99.90;;;;;;4159576;28;20049;-68
2021/09/16 05:29:50;;;;;;;3.85;1.13;;;32.30;99.90;;;;;;4152299;28;20577;-68
2021/09/16 05:31:55;;;;;;;1.52;1.00;;;32.20;99.90;;;;;;4154602;28;20057;-70
2021/09/16 05:34:00;;;;;;;1.85;1.15;;;32.20;99.90;;;;;;4172627;28;20092;-68
2021/09/16 05:36:04;;;;;;;2.75;1.10;;;32.10;99.90;;;;;;4192528;28;20046;-70
2021/09/16 05:38:09;;;;;;;4.00;1.20;;;32.10;99.90;;;;;;4193030;28;20072;-68
2021/09/16 05:40:14;;;;;;;1.58;1.10;;;32.00;99.90;;;;;;4168743;28;20053;-69
2021/09/16 05:42:19;;;;;;;3.22;1.10;;;32.00;99.90;;;;;;4183534;28;20338;-69
2021/09/16 05:44:23;;;;;;;2.45;0.93;;;32.10;99.90;;;;;;4187344;28;20048;-69
2021/09/16 05:46:29;;;;;;;1.50;1.05;;;32.20;99.90;;;;;;4189156;28;20498;-69
2021/09/16 05:48:33;;;;;;;2.67;1.10;;;32.20;99.90;;;;;;4189912;28;20048;-69
2021/09/16 05:50:38;;;;;;;3.40;1.25;;;32.20;99.90;;;;;;4183606;28;20056;-69
2021/09/16 05:52:42;;;;;;;3.35;1.35;;;32.20;99.90;;;;;;4190492;28;20049;-68
2021/09/16 05:54:47;;;;;;;2.08;0.93;;;32.20;99.90;;;;;;4174070;28;20106;-68
2021/09/16 05:56:52;;;;;;;1.15;1.00;;;32.30;99.90;;;;;;4191146;28;20048;-69
2021/09/16 05:59:00;;;;;;;2.50;1.00;;;32.30;99.90;;;;;;4192177;28;20558;-70
2021/09/16 06:01:05;;;;;;;2.58;1.00;;;32.30;99.90;;;;;;4180288;28;20056;-69
2021/09/16 06:03:09;;;;;;;1.55;1.00;;;32.30;99.90;;;;;;4190275;28;20407;-69
2021/09/16 06:05:14;;;;;;;3.00;1.40;;;32.30;99.90;;;;;;4189801;28;20044;-69
2021/09/16 06:07:18;;;;;;;4.95;1.30;;;32.40;99.90;;;;;;4187055;28;20502;-69
2021/09/16 06:09:23;;;;;;;4.68;1.35;;;32.30;99.90;;;;;;4187127;28;20098;-69
2021/09/16 06:11:28;;;;;;;2.70;1.20;;;32.40;99.90;;;;;;4167831;28;20084;-69
2021/09/16 06:13:33;;;;;;;2.20;1.17;;;32.40;99.90;;;;;;4190835;28;20071;-69
2021/09/16 06:15:37;;;;;;;1.67;1.20;;;32.50;99.90;;;;;;4188690;28;20056;-69
2021/09/16 06:17:42;;;;;;;5.93;0.98;;;32.50;99.90;;;;;;4190496;28;20055;-69
2021/09/16 06:19:46;;;;;;;2.40;1.10;;;32.60;99.90;;;;;;4169727;28;20045;-68
2021/09/16 06:21:51;;;;;;;2.88;1.00;;;32.60;99.90;;;;;;4186072;28;20044;-69
2021/09/16 06:23:55;;;;;;;2.53;1.10;;;32.50;99.90;;;;;;4183636;28;20150;-70
2021/09/16 06:26:00;;;;;;;2.75;1.10;;;32.50;99.90;;;;;;4188898;28;20542;-70
2021/09/16 06:28:05;;;;;;;3.17;1.10;;;32.50;99.90;;;;;;4188357;28;20048;-70
2021/09/16 06:30:10;;;;;;;3.42;1.00;;;32.60;99.90;;;;;;4182973;28;20052;-70
2021/09/16 06:32:14;;;;;;;1.90;1.23;;;32.60;99.90;;;;;;4183965;28;20074;-69
2021/09/16 06:34:18;;;;;;;2.38;1.15;;;32.60;99.90;;;;;;4189084;28;20442;-68
2021/09/16 06:36:23;;;;;;;2.25;1.02;;;32.60;99.90;;;;;;4189789;28;20048;-67
2021/09/16 06:38:27;;;;;;;1.48;0.95;;;32.50;99.90;;;;;;4172094;28;20480;-68
2021/09/16 06:40:32;;;;;;;1.75;0.80;;;32.50;99.90;;;;;;4183321;28;20151;-68
2021/09/16 06:42:36;;;;;;;2.95;0.93;;;32.50;99.90;;;;;;4188968;28;20039;-68
2021/09/16 06:44:41;;;;;;;1.73;0.75;;;32.60;99.90;;;;;;4172302;28;20045;-71
2021/09/16 06:46:46;;;;;;;4.13;1.10;;;32.50;99.90;;;;;;4189105;28;20355;-69
2021/09/16 06:48:50;;;;;;;2.05;1.00;;;32.60;99.90;;;;;;4170095;28;20052;-69
2021/09/16 06:50:56;;;;;;;2.40;1.02;;;32.60;99.90;;;;;;4178650;28;20094;-69
2021/09/16 06:53:01;;;;;;;2.08;1.00;;;32.70;99.90;;;;;;4190532;28;20052;-68
2021/09/16 06:55:06;;;;;;;1.83;1.00;;;32.70;99.90;;;;;;4189053;28;20037;-69
2021/09/16 06:57:11;;;;;;;3.42;1.13;;;32.70;99.90;;;;;;4172517;28;20393;-69
2021/09/16 06:59:16;;;;;;;3.00;1.27;;;32.70;99.90;;;;;;4188547;28;20063;-67
2021/09/16 07:01:20;;;;;;;2.90;1.23;;;32.70;99.90;;;;;;4181737;28;20055;-68
2021/09/16 07:03:25;;;;;;;3.05;1.10;;;32.60;99.90;;;;;;4186994;28;20661;-69
2021/09/16 07:05:31;;;;;;;1.85;0.98;;;32.60;99.90;;;;;;4189042;28;20105;-68
2021/09/16 07:07:35;;;;;;;3.05;1.00;;;32.60;99.90;;;;;;4172697;28;20072;-70
2021/09/16 07:09:40;;;;;;;1.55;0.90;;;32.50;99.90;;;;;;4185059;28;20430;-70
2021/09/16 07:11:45;;;;;;;2.05;1.17;;;32.50;99.90;;;;;;4182485;28;20055;-70
2021/09/16 07:13:50;;;;;;;2.47;1.00;;;32.50;99.90;;;;;;4188839;28;20036;-69
2021/09/16 07:15:55;;;;;;;2.05;0.90;;;32.50;99.90;;;;;;4188905;28;20471;-70
2021/09/16 07:18:00;;;;;;;2.22;0.85;;;32.60;99.90;;;;;;4190031;28;20092;-70
2021/09/16 07:20:05;;;;;;;1.73;0.80;;;32.60;99.90;;;;;;4182224;28;20152;-70
2021/09/16 07:22:09;;;;;;;1.88;1.02;;;32.60;99.90;;;;;;4168635;28;20041;-70
2021/09/16 07:24:14;;;;;;;1.25;0.88;;;32.60;99.90;;;;;;4189781;28;20094;-70
2021/09/16 07:26:22;;;;;;;3.78;1.20;;;32.60;99.90;;;;;;4171381;28;20586;-70
2021/09/16 07:28:27;;;;;;;1.35;0.90;;;32.70;99.90;;;;;;4189337;28;20557;-69
2021/09/16 07:30:31;;;;;;;1.85;0.85;;;32.60;99.90;;;;;;4181414;28;20137;-69
2021/09/16 07:32:36;;;;;;;2.58;0.70;;;32.70;99.90;;;;;;4187545;28;20052;-69
2021/09/16 07:34:40;;;;;;;1.23;0.80;;;32.70;99.90;;;;;;4184670;28;20123;-69
2021/09/16 07:36:45;;;;;;;1.08;0.68;;;32.50;99.90;;;;;;4190569;28;20036;-68
2021/09/16 07:38:50;;;;;;;5.18;1.40;;;32.50;99.90;;;;;;4173576;28;20048;-68
2021/09/16 07:40:55;;;;;;;2.20;1.00;;;32.40;99.90;;;;;;4180031;28;20079;-69
2021/09/16 07:42:59;;;;;;;1.27;0.73;;;32.40;99.90;;;;;;4189321;28;20052;-70
2021/09/16 07:45:06;;;;;;;1.90;0.68;;;32.50;99.90;;;;;;4187965;28;20048;-70
2021/09/16 07:47:11;;;;;;;2.55;1.00;;;32.50;99.90;;;;;;4189582;28;20044;-69
2021/09/16 07:49:16;;;;;;;3.65;1.13;;;32.50;99.90;;;;;;4166160;28;20057;-69
2021/09/16 07:51:21;;;;;;;2.63;0.95;;;32.40;99.90;;;;;;4181598;28;20157;-68
2021/09/16 07:53:28;;;;;;;2.45;0.80;;;32.40;99.90;;;;;;4188877;28;20040;-68
2021/09/16 07:55:33;;;;;;;6.15;1.02;;;32.30;99.90;;;;;;4187097;28;20456;-69
2021/09/16 07:57:40;;;;;;;3.22;0.90;;;32.40;99.90;;;;;;4187179;28;20075;-70
2021/09/16 07:59:44;;;;;;;4.22;0.85;;;32.40;99.90;;;;;;4186742;28;20058;-69
2021/09/16 08:01:49;;;;;;;1.77;1.00;;;32.40;99.90;;;;;;4164861;28;20053;-69
2021/09/16 08:03:54;;;;;;;1.40;1.08;;;32.30;99.90;;;;;;4188475;28;20110;-69
2021/09/16 08:05:59;;;;;;;1.58;0.88;;;32.40;99.90;;;;;;4189096;28;20056;-70
2021/09/16 08:08:04;;;;;;;2.85;0.90;;;32.50;99.90;;;;;;4188391;28;20426;-69
2021/09/16 08:10:09;;;;;;;1.95;0.98;;;32.60;99.90;;;;;;4182110;28;20478;-68
2021/09/16 08:12:14;;;;;;;2.55;1.00;;;32.60;99.90;;;;;;4169511;28;20507;-69
2021/09/16 08:14:18;;;;;;;3.15;1.23;;;32.70;99.90;;;;;;4172003;28;20037;-68
2021/09/16 08:16:23;;;;;;;4.07;1.30;;;32.80;99.90;;;;;;4188479;28;20469;-69
2021/09/16 08:18:27;;;;;;;4.15;1.27;;;32.80;99.90;;;;;;4188051;28;20134;-70
2021/09/16 08:20:37;;;;;;;2.53;1.05;;;32.80;99.90;;;;;;4181891;28;20040;-70
2021/09/16 08:22:44;;;;;;;2.80;1.10;;;32.80;99.90;;;;;;4188761;28;20064;-70
2021/09/16 08:24:48;;;;;;;4.60;1.00;;;32.80;99.90;;;;;;4189438;28;20366;-69
2021/09/16 08:26:52;;;;;;;6.47;1.27;;;32.80;99.90;;;;;;4188792;28;20106;-72
2021/09/16 08:28:57;;;;;;;5.50;1.20;;;32.80;99.90;;;;;;4187588;28;20052;-70
2021/09/16 08:31:04;;;;;;;3.22;1.20;;;32.90;99.90;;;;;;4182184;28;20051;-71
2021/09/16 08:33:11;;;;;;;3.95;1.10;;;32.90;99.90;;;;;;4187238;28;20173;-70
2021/09/16 08:35:15;;;;;;;3.20;0.95;;;32.90;99.90;;;;;;4190167;28;20139;-70
2021/09/16 08:37:20;;;;;;;2.40;1.20;;;32.90;99.90;;;;;;4191625;28;20470;-70
2021/09/16 08:39:24;;;;;;;3.95;0.90;;;32.90;99.90;;;;;;4186226;28;20086;-69
2021/09/16 08:41:33;;;;;;;5.38;0.90;;;32.90;99.90;;;;;;4183977;28;20051;-72
2021/09/16 08:43:39;;;;;;;1.30;0.80;;;32.90;99.90;;;;;;4174437;28;20511;-71
2021/09/16 08:45:44;;;;;;;1.58;0.93;;;32.90;99.90;;;;;;4193205;28;20032;-70
2021/09/16 08:47:51;;;;;;;2.97;1.02;;;33.00;99.90;;;;;;4188497;28;20048;-69
2021/09/16 08:49:56;;;;;;;3.67;0.93;;;33.00;99.90;;;;;;4172625;28;20049;-69
2021/09/16 08:52:00;;;;;;;3.78;0.90;;;33.00;99.90;;;;;;4186936;28;20506;-69
2021/09/16 08:54:05;;;;;;;2.53;1.00;;;33.00;99.90;;;;;;4192860;28;20542;-69
2021/09/16 08:56:09;;;;;;;4.03;2.30;;;33.00;99.90;;;;;;4189642;28;20509;-69
2021/09/16 08:58:14;;;;;;;4.93;1.73;;;33.00;99.90;;;;;;4191402;28;20044;-70
2021/09/16 09:00:19;;;;;;;3.17;1.10;;;33.00;99.90;;;;;;4184446;28;20569;-70
2021/09/16 09:02:25;;;;;;;2.75;1.00;;;33.10;99.90;;;;;;4172412;28;20048;-69
2021/09/16 09:04:30;;;;;;;3.80;1.00;;;33.00;99.90;;;;;;4188736;28;20672;-70
2021/09/16 09:06:37;;;;;;;2.17;0.90;;;33.00;99.90;;;;;;4193287;28;20102;-70
2021/09/16 09:08:46;;;;;;;2.13;1.38;;;32.90;99.90;;;;;;4193648;28;20048;-70
2021/09/16 09:10:56;;;;;;;0.93;0.80;;;32.90;99.90;;;;;;4160399;28;20458;-69
2021/09/16 09:13:00;;;;;;;5.82;1.45;;;33.00;99.90;;;;;;4160495;28;20053;-70
2021/09/16 09:15:10;;;;;;;2.72;1.00;;;32.90;99.90;;;;;;4161356;28;20037;-69
2021/09/16 09:17:22;;;;;;;2.58;1.10;;;32.90;99.90;;;;;;4178045;28;20051;-69
2021/09/16 09:19:28;;;;;;;6.65;2.58;;;32.80;99.90;;;;;;4158179;28;20141;-69
2021/09/16 09:21:36;;;;;;;5.72;3.97;;;32.80;99.90;;;;;;4160931;28;20530;-71
2021/09/16 09:23:44;;;;;;;10.98;6.93;;;32.70;99.90;;;;;;4144557;28;20060;-69
2021/09/16 09:25:49;;;;;;;19.30;12.15;;;32.70;99.90;;;;;;4144084;28;20058;-69
2021/09/16 09:27:54;;;;;;;20.02;12.57;;;32.70;99.90;;;;;;4177321;28;20057;-69
2021/09/16 09:30:08;;;;;;;20.15;11.18;;;32.60;99.90;;;;;;4176913;28;20128;-70
2021/09/16 09:32:15;;;;;;;18.88;8.35;;;32.60;99.90;;;;;;4177225;28;20147;-70
2021/09/16 09:34:32;;;;;;;15.75;6.13;;;32.60;99.90;;;;;;4159320;28;20065;-70
2021/09/16 09:36:38;;;;;;;10.60;5.60;;;32.60;99.90;;;;;;4143791;28;20109;-70
2021/09/16 09:39:01;;;;;;;6.15;3.50;;;32.50;99.90;;;;;;4145563;28;20367;-69
2021/09/16 09:41:07;;;;;;;4.72;2.42;;;32.50;99.90;;;;;;4160341;28;20076;-70
2021/09/16 09:43:25;;;;;;;5.10;2.10;;;32.50;99.90;;;;;;4191208;28;20044;-69
2021/09/16 09:45:30;;;;;;;11.48;2.13;;;32.50;99.90;;;;;;4195308;28;20087;-69
2021/09/16 09:47:47;;;;;;;3.80;1.30;;;32.40;99.90;;;;;;4193628;28;20040;-69
2021/09/16 09:49:57;;;;;;;3.50;1.25;;;32.30;99.90;;;;;;4192809;28;20059;-70
2021/09/16 09:52:02;;;;;;;2.50;1.30;;;32.30;99.90;;;;;;4179017;28;20049;-70
2021/09/16 09:54:16;;;;;;;2.88;1.20;;;32.30;99.90;;;;;;4196172;28;20471;-69
2021/09/16 09:56:21;;;;;;;2.28;1.10;;;32.30;99.90;;;;;;4195739;28;20044;-68
2021/09/16 09:58:30;;;;;;;3.53;1.17;;;32.20;99.90;;;;;;4194988;28;20040;-69
2021/09/16 10:00:34;;;;;;;2.55;1.50;;;32.20;99.90;;;;;;4191837;28;20079;-69
2021/09/16 10:02:55;;;;;;;4.95;2.38;;;32.20;99.90;;;;;;4194967;28;20560;-70
2021/09/16 10:05:00;;;;;;;4.47;1.85;;;32.10;99.90;;;;;;4193495;28;20064;-70
2021/09/16 10:07:04;;;;;;;3.03;1.60;;;32.10;99.90;;;;;;4194187;28;20481;-69
2021/09/16 10:09:09;;;;;;;2.63;1.00;;;32.10;99.90;;;;;;4177306;28;20494;-69
2021/09/16 10:11:14;;;;;;;7.80;1.23;;;32.00;99.90;;;;;;4191773;28;20585;-70
2021/09/16 10:13:19;;;;;;;5.07;1.15;;;32.00;99.90;;;;;;4160015;28;20053;-69
2021/09/16 10:15:23;;;;;;;1.67;1.10;;;32.00;99.90;;;;;;4175401;28;20072;-69
2021/09/16 10:17:28;;;;;;;1.70;1.05;;;32.00;99.90;;;;;;4175737;28;20076;-68
2021/09/16 10:19:34;;;;;;;4.03;1.20;;;31.90;99.90;;;;;;4174134;28;20369;-69
2021/09/16 10:21:39;;;;;;;3.70;0.93;;;31.90;99.90;;;;;;4175443;28;20128;-68
2021/09/16 10:23:43;;;;;;;4.30;1.20;;;31.80;99.90;;;;;;4175236;28;20060;-69
2021/09/16 10:25:49;;;;;;;3.67;1.60;;;31.80;99.90;;;;;;4159545;28;20041;-69
2021/09/16 10:27:57;;;;;;;4.82;1.50;;;31.80;99.90;;;;;;4175608;28;20048;-68
2021/09/16 10:30:21;;;;;;;4.00;1.77;;;31.80;99.90;;;;;;4175367;28;20045;-69
2021/09/16 10:32:29;;;;;;;4.07;1.60;;;31.70;99.90;;;;;;4175247;28;20071;-70
2021/09/16 10:34:59;;;;;;;4.15;1.50;;;31.70;99.90;;;;;;4158034;28;20056;-68
2021/09/16 10:37:23;;;;;;;3.45;1.30;;;31.70;99.90;;;;;;4161023;28;20063;-69
2021/09/16 10:39:29;;;;;;;1.42;1.10;;;31.60;99.90;;;;;;4158198;28;20057;-69
2021/09/16 10:41:34;;;;;;;7.38;1.35;;;31.60;99.90;;;;;;4155084;28;20044;-69
2021/09/16 10:43:39;;;;;;;3.85;1.35;;;31.60;99.90;;;;;;4140236;28;20580;-71
2021/09/16 10:45:44;;;;;;;3.42;1.15;;;31.60;99.90;;;;;;4173628;28;20056;-70
2021/09/16 10:47:48;;;;;;;3.15;1.30;;;31.50;99.90;;;;;;4168554;28;20123;-70
2021/09/16 10:49:53;;;;;;;5.75;1.70;;;31.50;99.90;;;;;;4177958;28;20107;-73
2021/09/16 10:52:03;;;;;;;4.43;1.58;;;31.50;99.90;;;;;;4171581;28;20053;-70